sensor_id;sensor_type;location;lat;lon;timestamp;P1;durP1;ratioP1;P2;durP2;ratioP2
45887;SDS011;31595;51.418;7.572;2022-10-26T00:07:48;4.10;;;2.45;;
45887;SDS011;31595;51.418;7.572;2022-10-26T00:10:48;7.97;;;3.40;;
45887;SDS011;31595;51.418;7.572;2022-10-26T00:13:49;7.50;;;2.83;;
45887;SDS011;31595;51.418;7.572;2022-10-26T00:17:27;5.30;;;2.87;;
45887;SDS011;31595;51.418;7.572;2022-10-26T00:20:53;6.43;;;2.47;;
45887;SDS011;31595;51.418;7.572;2022-10-26T00:45:03;4.43;;;2.80;;
45887;SDS011;31595;51.418;7.572;2022-10-26T00:48:21;5.68;;;2.55;;
45887;SDS011;31595;51.418;7.572;2022-10-26T00:55:04;5.05;;;3.17;;
45887;SDS011;31595;51.418;7.572;2022-10-26T01:04:19;5.90;;;2.50;;
45887;SDS011;31595;51.418;7.572;2022-10-26T01:07:57;6.22;;;3.20;;
45887;SDS011;31595;51.418;7.572;2022-10-26T01:10:41;5.18;;;3.22;;
45887;SDS011;31595;51.418;7.572;2022-10-26T01:13:38;9.38;;;3.05;;
45887;SDS011;31595;51.418;7.572;2022-10-26T01:16:56;4.38;;;2.92;;
45887;SDS011;31595;51.418;7.572;2022-10-26T01:26:11;5.03;;;3.20;;
45887;SDS011;31595;51.418;7.572;2022-10-26T01:40:42;6.47;;;2.87;;
45887;SDS011;31595;51.418;7.572;2022-10-26T01:45:54;5.72;;;3.58;;
45887;SDS011;31595;51.418;7.572;2022-10-26T02:30:10;7.20;;;2.92;;
45887;SDS011;31595;51.418;7.572;2022-10-26T02:43:47;4.70;;;2.50;;
45887;SDS011;31595;51.418;7.572;2022-10-26T02:52:27;4.88;;;2.20;;
45887;SDS011;31595;51.418;7.572;2022-10-26T02:55:30;4.72;;;2.50;;
45887;SDS011;31595;51.418;7.572;2022-10-26T02:58:32;5.00;;;2.80;;
45887;SDS011;31595;51.418;7.572;2022-10-26T03:04:51;4.78;;;2.40;;
45887;SDS011;31595;51.418;7.572;2022-10-26T03:08:02;6.85;;;3.13;;
45887;SDS011;31595;51.418;7.572;2022-10-26T03:27:24;7.93;;;2.97;;
45887;SDS011;31595;51.418;7.572;2022-10-26T03:33:17;5.07;;;2.50;;
45887;SDS011;31595;51.418;7.572;2022-10-26T03:35:44;4.95;;;2.65;;
45887;SDS011;31595;51.418;7.572;2022-10-26T03:38:11;5.55;;;3.03;;
45887;SDS011;31595;51.418;7.572;2022-10-26T03:40:39;7.63;;;3.45;;
45887;SDS011;31595;51.418;7.572;2022-10-26T03:43:08;5.90;;;3.22;;
45887;SDS011;31595;51.418;7.572;2022-10-26T03:45:35;5.70;;;2.88;;
45887;SDS011;31595;51.418;7.572;2022-10-26T03:48:03;9.82;;;3.03;;
45887;SDS011;31595;51.418;7.572;2022-10-26T03:50:30;4.57;;;2.63;;
45887;SDS011;31595;51.418;7.572;2022-10-26T03:52:57;8.40;;;3.20;;
45887;SDS011;31595;51.418;7.572;2022-10-26T03:55:25;4.93;;;3.05;;
45887;SDS011;31595;51.418;7.572;2022-10-26T03:57:52;6.55;;;3.20;;
45887;SDS011;31595;51.418;7.572;2022-10-26T04:00:20;5.75;;;3.28;;
45887;SDS011;31595;51.418;7.572;2022-10-26T04:02:52;6.78;;;3.10;;
45887;SDS011;31595;51.418;7.572;2022-10-26T04:05:20;6.05;;;3.10;;
45887;SDS011;31595;51.418;7.572;2022-10-26T04:07:51;3.85;;;2.72;;
45887;SDS011;31595;51.418;7.572;2022-10-26T04:10:19;4.40;;;2.60;;
45887;SDS011;31595;51.418;7.572;2022-10-26T04:12:46;8.50;;;3.25;;
45887;SDS011;31595;51.418;7.572;2022-10-26T04:15:14;6.00;;;3.17;;
45887;SDS011;31595;51.418;7.572;2022-10-26T04:17:43;5.85;;;3.08;;
45887;SDS011;31595;51.418;7.572;2022-10-26T04:20:10;5.75;;;3.08;;
45887;SDS011;31595;51.418;7.572;2022-10-26T04:22:38;5.28;;;2.72;;
45887;SDS011;31595;51.418;7.572;2022-10-26T04:25:06;9.80;;;3.50;;
45887;SDS011;31595;51.418;7.572;2022-10-26T04:27:35;7.20;;;3.22;;
45887;SDS011;31595;51.418;7.572;2022-10-26T04:30:02;4.85;;;2.95;;
45887;SDS011;31595;51.418;7.572;2022-10-26T04:32:32;6.60;;;2.83;;
45887;SDS011;31595;51.418;7.572;2022-10-26T04:35:01;9.82;;;3.85;;
45887;SDS011;31595;51.418;7.572;2022-10-26T04:37:29;6.15;;;3.40;;
45887;SDS011;31595;51.418;7.572;2022-10-26T04:39:56;13.73;;;3.80;;
45887;SDS011;31595;51.418;7.572;2022-10-26T04:42:23;5.05;;;3.30;;
45887;SDS011;31595;51.418;7.572;2022-10-26T04:44:50;5.03;;;2.90;;
45887;SDS011;31595;51.418;7.572;2022-10-26T04:47:18;5.25;;;2.20;;
45887;SDS011;31595;51.418;7.572;2022-10-26T04:49:45;2.53;;;1.50;;
45887;SDS011;31595;51.418;7.572;2022-10-26T04:52:14;3.45;;;1.30;;
45887;SDS011;31595;51.418;7.572;2022-10-26T04:54:41;5.45;;;1.20;;
45887;SDS011;31595;51.418;7.572;2022-10-26T04:57:08;2.92;;;1.13;;
45887;SDS011;31595;51.418;7.572;2022-10-26T04:59:36;3.22;;;1.33;;
45887;SDS011;31595;51.418;7.572;2022-10-26T05:02:03;3.92;;;1.30;;
45887;SDS011;31595;51.418;7.572;2022-10-26T05:04:30;5.57;;;1.58;;
45887;SDS011;31595;51.418;7.572;2022-10-26T05:06:58;4.07;;;1.52;;
45887;SDS011;31595;51.418;7.572;2022-10-26T05:09:26;3.83;;;1.40;;
45887;SDS011;31595;51.418;7.572;2022-10-26T05:11:54;7.43;;;1.35;;
45887;SDS011;31595;51.418;7.572;2022-10-26T05:14:21;3.55;;;1.30;;
45887;SDS011;31595;51.418;7.572;2022-10-26T05:16:49;3.50;;;1.40;;
45887;SDS011;31595;51.418;7.572;2022-10-26T05:19:16;2.53;;;1.10;;
45887;SDS011;31595;51.418;7.572;2022-10-26T05:21:44;3.00;;;1.20;;
45887;SDS011;31595;51.418;7.572;2022-10-26T05:24:11;5.00;;;1.00;;
45887;SDS011;31595;51.418;7.572;2022-10-26T05:26:40;3.45;;;1.13;;
45887;SDS011;31595;51.418;7.572;2022-10-26T05:29:09;4.43;;;1.10;;
45887;SDS011;31595;51.418;7.572;2022-10-26T05:31:36;3.65;;;1.10;;
45887;SDS011;31595;51.418;7.572;2022-10-26T05:34:03;2.72;;;1.08;;
45887;SDS011;31595;51.418;7.572;2022-10-26T05:36:30;7.93;;;1.67;;
45887;SDS011;31595;51.418;7.572;2022-10-26T05:38:58;3.25;;;1.75;;
45887;SDS011;31595;51.418;7.572;2022-10-26T05:41:25;5.15;;;2.20;;
45887;SDS011;31595;51.418;7.572;2022-10-26T05:43:56;4.05;;;2.85;;
45887;SDS011;31595;51.418;7.572;2022-10-26T05:46:23;4.68;;;2.97;;
45887;SDS011;31595;51.418;7.572;2022-10-26T05:48:50;4.85;;;1.98;;
45887;SDS011;31595;51.418;7.572;2022-10-26T05:51:17;5.72;;;3.28;;
45887;SDS011;31595;51.418;7.572;2022-10-26T05:53:46;4.53;;;2.00;;
45887;SDS011;31595;51.418;7.572;2022-10-26T05:56:16;4.30;;;1.55;;
45887;SDS011;31595;51.418;7.572;2022-10-26T05:58:46;7.40;;;3.03;;
45887;SDS011;31595;51.418;7.572;2022-10-26T06:01:18;5.63;;;1.83;;
45887;SDS011;31595;51.418;7.572;2022-10-26T06:03:58;5.90;;;2.22;;
45887;SDS011;31595;51.418;7.572;2022-10-26T06:06:37;3.70;;;1.50;;
45887;SDS011;31595;51.418;7.572;2022-10-26T06:09:08;7.47;;;2.10;;
45887;SDS011;31595;51.418;7.572;2022-10-26T06:11:37;3.20;;;1.25;;
45887;SDS011;31595;51.418;7.572;2022-10-26T06:14:05;4.35;;;1.80;;
45887;SDS011;31595;51.418;7.572;2022-10-26T06:16:37;6.63;;;2.90;;
45887;SDS011;31595;51.418;7.572;2022-10-26T06:19:26;5.80;;;2.50;;
45887;SDS011;31595;51.418;7.572;2022-10-26T06:22:08;4.13;;;2.08;;
45887;SDS011;31595;51.418;7.572;2022-10-26T06:24:48;4.47;;;1.33;;
45887;SDS011;31595;51.418;7.572;2022-10-26T06:27:24;3.42;;;1.13;;
45887;SDS011;31595;51.418;7.572;2022-10-26T06:30:01;2.30;;;1.02;;
45887;SDS011;31595;51.418;7.572;2022-10-26T06:32:32;3.20;;;1.05;;
45887;SDS011;31595;51.418;7.572;2022-10-26T06:35:02;4.88;;;2.10;;
45887;SDS011;31595;51.418;7.572;2022-10-26T06:37:41;8.93;;;3.30;;
45887;SDS011;31595;51.418;7.572;2022-10-26T06:40:10;10.80;;;3.80;;
45887;SDS011;31595;51.418;7.572;2022-10-26T06:42:41;9.43;;;4.03;;
45887;SDS011;31595;51.418;7.572;2022-10-26T06:45:11;10.35;;;3.80;;
45887;SDS011;31595;51.418;7.572;2022-10-26T06:47:42;15.50;;;4.25;;
45887;SDS011;31595;51.418;7.572;2022-10-26T06:50:18;13.65;;;4.22;;
45887;SDS011;31595;51.418;7.572;2022-10-26T06:52:57;8.02;;;3.33;;
45887;SDS011;31595;51.418;7.572;2022-10-26T06:55:36;10.63;;;3.22;;
45887;SDS011;31595;51.418;7.572;2022-10-26T06:58:07;5.90;;;2.85;;
45887;SDS011;31595;51.418;7.572;2022-10-26T07:00:40;8.60;;;3.00;;
45887;SDS011;31595;51.418;7.572;2022-10-26T07:03:11;7.35;;;3.22;;
45887;SDS011;31595;51.418;7.572;2022-10-26T07:05:38;9.55;;;3.40;;
45887;SDS011;31595;51.418;7.572;2022-10-26T07:08:05;6.38;;;2.92;;
45887;SDS011;31595;51.418;7.572;2022-10-26T07:10:33;4.32;;;2.80;;
45887;SDS011;31595;51.418;7.572;2022-10-26T07:13:03;8.52;;;2.85;;
45887;SDS011;31595;51.418;7.572;2022-10-26T07:15:31;4.13;;;2.10;;
45887;SDS011;31595;51.418;7.572;2022-10-26T07:17:58;4.80;;;3.00;;
45887;SDS011;31595;51.418;7.572;2022-10-26T07:20:27;8.88;;;4.28;;
45887;SDS011;31595;51.418;7.572;2022-10-26T07:22:55;5.47;;;3.33;;
45887;SDS011;31595;51.418;7.572;2022-10-26T07:25:23;9.15;;;3.85;;
45887;SDS011;31595;51.418;7.572;2022-10-26T07:27:55;15.10;;;4.18;;
45887;SDS011;31595;51.418;7.572;2022-10-26T07:30:23;7.78;;;3.45;;
45887;SDS011;31595;51.418;7.572;2022-10-26T07:32:50;9.60;;;3.67;;
45887;SDS011;31595;51.418;7.572;2022-10-26T07:35:23;7.35;;;4.18;;
45887;SDS011;31595;51.418;7.572;2022-10-26T07:37:52;8.77;;;3.28;;
45887;SDS011;31595;51.418;7.572;2022-10-26T07:40:22;7.68;;;3.90;;
45887;SDS011;31595;51.418;7.572;2022-10-26T07:42:49;9.32;;;3.90;;
45887;SDS011;31595;51.418;7.572;2022-10-26T07:45:17;7.88;;;4.18;;
45887;SDS011;31595;51.418;7.572;2022-10-26T07:47:45;7.72;;;3.67;;
45887;SDS011;31595;51.418;7.572;2022-10-26T07:50:12;10.00;;;4.18;;
45887;SDS011;31595;51.418;7.572;2022-10-26T07:52:39;10.52;;;4.20;;
45887;SDS011;31595;51.418;7.572;2022-10-26T07:55:08;11.80;;;4.35;;
45887;SDS011;31595;51.418;7.572;2022-10-26T07:57:36;10.10;;;4.00;;
45887;SDS011;31595;51.418;7.572;2022-10-26T08:00:05;8.02;;;3.80;;
45887;SDS011;31595;51.418;7.572;2022-10-26T08:02:34;5.25;;;3.45;;
45887;SDS011;31595;51.418;7.572;2022-10-26T08:05:02;11.52;;;4.20;;
45887;SDS011;31595;51.418;7.572;2022-10-26T08:07:29;8.40;;;4.13;;
45887;SDS011;31595;51.418;7.572;2022-10-26T08:09:56;8.55;;;3.88;;
45887;SDS011;31595;51.418;7.572;2022-10-26T08:12:25;9.98;;;4.47;;
45887;SDS011;31595;51.418;7.572;2022-10-26T08:14:52;8.40;;;4.63;;
45887;SDS011;31595;51.418;7.572;2022-10-26T08:17:20;10.40;;;4.50;;
45887;SDS011;31595;51.418;7.572;2022-10-26T08:19:47;11.05;;;4.70;;
45887;SDS011;31595;51.418;7.572;2022-10-26T08:22:15;9.63;;;3.58;;
45887;SDS011;31595;51.418;7.572;2022-10-26T08:24:42;6.95;;;3.15;;
45887;SDS011;31595;51.418;7.572;2022-10-26T08:27:11;7.70;;;2.92;;
45887;SDS011;31595;51.418;7.572;2022-10-26T08:29:40;4.25;;;1.55;;
45887;SDS011;31595;51.418;7.572;2022-10-26T08:34:35;2.85;;;1.20;;
45887;SDS011;31595;51.418;7.572;2022-10-26T08:37:02;5.25;;;1.02;;
45887;SDS011;31595;51.418;7.572;2022-10-26T08:39:29;2.78;;;1.20;;
45887;SDS011;31595;51.418;7.572;2022-10-26T08:41:59;3.92;;;1.25;;
45887;SDS011;31595;51.418;7.572;2022-10-26T08:44:31;4.93;;;1.25;;
45887;SDS011;31595;51.418;7.572;2022-10-26T08:47:05;3.40;;;1.30;;
45887;SDS011;31595;51.418;7.572;2022-10-26T08:49:39;2.33;;;1.00;;
45887;SDS011;31595;51.418;7.572;2022-10-26T08:52:13;4.63;;;1.10;;
45887;SDS011;31595;51.418;7.572;2022-10-26T08:54:51;4.90;;;0.90;;
45887;SDS011;31595;51.418;7.572;2022-10-26T08:57:24;3.53;;;1.00;;
45887;SDS011;31595;51.418;7.572;2022-10-26T08:59:55;2.95;;;1.10;;
45887;SDS011;31595;51.418;7.572;2022-10-26T09:02:27;2.85;;;1.10;;
45887;SDS011;31595;51.418;7.572;2022-10-26T09:04:55;6.00;;;1.50;;
45887;SDS011;31595;51.418;7.572;2022-10-26T09:07:31;3.95;;;1.25;;
45887;SDS011;31595;51.418;7.572;2022-10-26T09:10:12;6.30;;;1.48;;
45887;SDS011;31595;51.418;7.572;2022-10-26T09:12:58;5.05;;;1.10;;
45887;SDS011;31595;51.418;7.572;2022-10-26T09:15:35;6.22;;;1.63;;
45887;SDS011;31595;51.418;7.572;2022-10-26T09:18:23;3.05;;;1.33;;
45887;SDS011;31595;51.418;7.572;2022-10-26T09:21:03;2.92;;;1.50;;
45887;SDS011;31595;51.418;7.572;2022-10-26T09:23:42;5.55;;;1.55;;
45887;SDS011;31595;51.418;7.572;2022-10-26T09:26:23;4.47;;;1.27;;
45887;SDS011;31595;51.418;7.572;2022-10-26T09:28:55;4.38;;;1.30;;
45887;SDS011;31595;51.418;7.572;2022-10-26T09:31:27;2.17;;;1.35;;
45887;SDS011;31595;51.418;7.572;2022-10-26T09:34:00;4.57;;;1.40;;
45887;SDS011;31595;51.418;7.572;2022-10-26T09:36:31;4.07;;;1.38;;
45887;SDS011;31595;51.418;7.572;2022-10-26T09:39:03;3.30;;;1.48;;
45887;SDS011;31595;51.418;7.572;2022-10-26T09:41:42;3.70;;;1.13;;
45887;SDS011;31595;51.418;7.572;2022-10-26T09:44:17;6.22;;;1.60;;
45887;SDS011;31595;51.418;7.572;2022-10-26T09:46:54;4.63;;;1.52;;
45887;SDS011;31595;51.418;7.572;2022-10-26T09:49:30;4.45;;;1.58;;
45887;SDS011;31595;51.418;7.572;2022-10-26T09:52:06;3.65;;;1.10;;
45887;SDS011;31595;51.418;7.572;2022-10-26T09:54:33;2.38;;;1.38;;
45887;SDS011;31595;51.418;7.572;2022-10-26T09:57:00;2.97;;;1.40;;
45887;SDS011;31595;51.418;7.572;2022-10-26T09:59:32;3.30;;;1.65;;
45887;SDS011;31595;51.418;7.572;2022-10-26T10:02:14;3.80;;;1.33;;
45887;SDS011;31595;51.418;7.572;2022-10-26T10:05:07;3.45;;;1.58;;
45887;SDS011;31595;51.418;7.572;2022-10-26T10:07:47;5.75;;;1.60;;
45887;SDS011;31595;51.418;7.572;2022-10-26T10:10:16;4.85;;;1.80;;
45887;SDS011;31595;51.418;7.572;2022-10-26T10:12:45;3.72;;;1.20;;
45887;SDS011;31595;51.418;7.572;2022-10-26T10:15:16;3.63;;;1.30;;
45887;SDS011;31595;51.418;7.572;2022-10-26T10:17:46;6.25;;;1.63;;
45887;SDS011;31595;51.418;7.572;2022-10-26T10:22:56;5.28;;;1.55;;
45887;SDS011;31595;51.418;7.572;2022-10-26T10:25:31;5.93;;;1.65;;
45887;SDS011;31595;51.418;7.572;2022-10-26T10:28:00;3.35;;;1.42;;
45887;SDS011;31595;51.418;7.572;2022-10-26T10:30:30;5.97;;;1.38;;
45887;SDS011;31595;51.418;7.572;2022-10-26T10:33:06;4.50;;;2.03;;
45887;SDS011;31595;51.418;7.572;2022-10-26T10:35:38;5.07;;;2.08;;
45887;SDS011;31595;51.418;7.572;2022-10-26T10:38:14;4.28;;;1.60;;
45887;SDS011;31595;51.418;7.572;2022-10-26T10:40:48;6.90;;;1.83;;
45887;SDS011;31595;51.418;7.572;2022-10-26T10:43:19;10.50;;;2.00;;
45887;SDS011;31595;51.418;7.572;2022-10-26T10:45:49;4.72;;;1.80;;
45887;SDS011;31595;51.418;7.572;2022-10-26T10:48:23;5.30;;;1.90;;
45887;SDS011;31595;51.418;7.572;2022-10-26T10:50:55;3.75;;;1.90;;
45887;SDS011;31595;51.418;7.572;2022-10-26T10:53:25;4.70;;;1.85;;
45887;SDS011;31595;51.418;7.572;2022-10-26T10:56:04;6.25;;;1.80;;
45887;SDS011;31595;51.418;7.572;2022-10-26T10:58:44;5.05;;;1.85;;
45887;SDS011;31595;51.418;7.572;2022-10-26T11:01:21;4.35;;;2.00;;
45887;SDS011;31595;51.418;7.572;2022-10-26T11:06:56;4.18;;;1.73;;
45887;SDS011;31595;51.418;7.572;2022-10-26T11:09:27;6.38;;;2.38;;
45887;SDS011;31595;51.418;7.572;2022-10-26T11:12:00;5.95;;;2.15;;
45887;SDS011;31595;51.418;7.572;2022-10-26T11:14:34;4.45;;;1.58;;
45887;SDS011;31595;51.418;7.572;2022-10-26T11:17:07;5.53;;;1.80;;
45887;SDS011;31595;51.418;7.572;2022-10-26T11:19:45;5.95;;;2.20;;
45887;SDS011;31595;51.418;7.572;2022-10-26T11:22:23;3.08;;;1.92;;
45887;SDS011;31595;51.418;7.572;2022-10-26T11:24:53;4.07;;;1.52;;
45887;SDS011;31595;51.418;7.572;2022-10-26T11:27:24;4.82;;;1.85;;
45887;SDS011;31595;51.418;7.572;2022-10-26T11:29:58;5.65;;;2.28;;
45887;SDS011;31595;51.418;7.572;2022-10-26T11:32:30;6.75;;;2.20;;
45887;SDS011;31595;51.418;7.572;2022-10-26T11:35:04;6.78;;;2.30;;
45887;SDS011;31595;51.418;7.572;2022-10-26T11:37:43;4.35;;;1.77;;
45887;SDS011;31595;51.418;7.572;2022-10-26T11:40:23;3.88;;;1.90;;
45887;SDS011;31595;51.418;7.572;2022-10-26T11:42:58;4.38;;;1.85;;
45887;SDS011;31595;51.418;7.572;2022-10-26T11:45:36;11.27;;;2.38;;
45887;SDS011;31595;51.418;7.572;2022-10-26T11:48:11;5.70;;;2.13;;
45887;SDS011;31595;51.418;7.572;2022-10-26T11:50:44;5.28;;;2.38;;
45887;SDS011;31595;51.418;7.572;2022-10-26T11:53:20;6.18;;;2.00;;
45887;SDS011;31595;51.418;7.572;2022-10-26T11:55:51;7.47;;;2.58;;
45887;SDS011;31595;51.418;7.572;2022-10-26T11:58:21;4.88;;;2.97;;
45887;SDS011;31595;51.418;7.572;2022-10-26T12:00:50;5.50;;;3.08;;
45887;SDS011;31595;51.418;7.572;2022-10-26T12:03:22;4.90;;;2.60;;
45887;SDS011;31595;51.418;7.572;2022-10-26T12:05:53;4.05;;;2.22;;
45887;SDS011;31595;51.418;7.572;2022-10-26T12:08:22;4.68;;;2.67;;
45887;SDS011;31595;51.418;7.572;2022-10-26T12:10:55;3.92;;;2.53;;
45887;SDS011;31595;51.418;7.572;2022-10-26T12:13:31;4.38;;;2.80;;
45887;SDS011;31595;51.418;7.572;2022-10-26T12:16:06;6.20;;;3.03;;
45887;SDS011;31595;51.418;7.572;2022-10-26T12:18:45;3.63;;;2.60;;
45887;SDS011;31595;51.418;7.572;2022-10-26T12:21:17;6.07;;;5.47;;
45887;SDS011;31595;51.418;7.572;2022-10-26T12:23:56;4.85;;;3.70;;
45887;SDS011;31595;51.418;7.572;2022-10-26T12:35:28;6.57;;;2.83;;
45887;SDS011;31595;51.418;7.572;2022-10-26T12:41:19;3.53;;;2.45;;
45887;SDS011;31595;51.418;7.572;2022-10-26T12:43:48;3.78;;;3.03;;
45887;SDS011;31595;51.418;7.572;2022-10-26T12:52:29;3.45;;;2.90;;
45887;SDS011;31595;51.418;7.572;2022-10-26T13:01:18;4.68;;;2.50;;
45887;SDS011;31595;51.418;7.572;2022-10-26T13:07:13;6.45;;;2.63;;
45887;SDS011;31595;51.418;7.572;2022-10-26T13:09:45;4.75;;;2.25;;
45887;SDS011;31595;51.418;7.572;2022-10-26T13:12:24;5.68;;;3.15;;
45887;SDS011;31595;51.418;7.572;2022-10-26T13:14:57;5.93;;;3.08;;
45887;SDS011;31595;51.418;7.572;2022-10-26T13:17:29;3.38;;;1.67;;
45887;SDS011;31595;51.418;7.572;2022-10-26T13:19:59;3.80;;;1.33;;
45887;SDS011;31595;51.418;7.572;2022-10-26T13:22:28;3.03;;;1.55;;
45887;SDS011;31595;51.418;7.572;2022-10-26T13:24:57;5.10;;;1.88;;
45887;SDS011;31595;51.418;7.572;2022-10-26T13:27:40;4.82;;;1.60;;
45887;SDS011;31595;51.418;7.572;2022-10-26T13:30:16;2.80;;;1.65;;
45887;SDS011;31595;51.418;7.572;2022-10-26T13:33:05;3.05;;;2.10;;
45887;SDS011;31595;51.418;7.572;2022-10-26T13:35:38;3.33;;;2.10;;
45887;SDS011;31595;51.418;7.572;2022-10-26T13:38:08;2.92;;;1.77;;
45887;SDS011;31595;51.418;7.572;2022-10-26T13:40:37;3.60;;;2.53;;
45887;SDS011;31595;51.418;7.572;2022-10-26T13:43:05;4.28;;;2.63;;
45887;SDS011;31595;51.418;7.572;2022-10-26T13:45:38;5.63;;;2.22;;
45887;SDS011;31595;51.418;7.572;2022-10-26T13:48:25;4.13;;;2.15;;
45887;SDS011;31595;51.418;7.572;2022-10-26T13:50:58;4.60;;;1.83;;
45887;SDS011;31595;51.418;7.572;2022-10-26T13:53:31;3.53;;;2.05;;
45887;SDS011;31595;51.418;7.572;2022-10-26T13:56:07;4.95;;;1.80;;
45887;SDS011;31595;51.418;7.572;2022-10-26T13:58:42;4.70;;;1.90;;
45887;SDS011;31595;51.418;7.572;2022-10-26T14:01:15;2.40;;;1.35;;
45887;SDS011;31595;51.418;7.572;2022-10-26T14:03:47;3.53;;;1.85;;
45887;SDS011;31595;51.418;7.572;2022-10-26T14:06:16;3.22;;;1.77;;
45887;SDS011;31595;51.418;7.572;2022-10-26T14:08:47;4.43;;;1.75;;
45887;SDS011;31595;51.418;7.572;2022-10-26T14:11:18;2.85;;;1.40;;
45887;SDS011;31595;51.418;7.572;2022-10-26T14:13:49;3.67;;;1.30;;
45887;SDS011;31595;51.418;7.572;2022-10-26T14:16:17;3.15;;;1.40;;
45887;SDS011;31595;51.418;7.572;2022-10-26T14:18:47;4.35;;;3.45;;
45887;SDS011;31595;51.418;7.572;2022-10-26T14:21:15;3.25;;;1.48;;
45887;SDS011;31595;51.418;7.572;2022-10-26T14:23:47;2.70;;;1.10;;
45887;SDS011;31595;51.418;7.572;2022-10-26T14:26:20;3.03;;;1.25;;
45887;SDS011;31595;51.418;7.572;2022-10-26T14:28:50;2.83;;;1.40;;
45887;SDS011;31595;51.418;7.572;2022-10-26T14:31:20;3.97;;;1.48;;
45887;SDS011;31595;51.418;7.572;2022-10-26T14:33:50;5.07;;;1.40;;
45887;SDS011;31595;51.418;7.572;2022-10-26T14:36:18;3.17;;;1.10;;
45887;SDS011;31595;51.418;7.572;2022-10-26T14:38:48;3.40;;;1.20;;
45887;SDS011;31595;51.418;7.572;2022-10-26T14:41:20;2.58;;;1.00;;
45887;SDS011;31595;51.418;7.572;2022-10-26T14:43:49;3.60;;;1.20;;
45887;SDS011;31595;51.418;7.572;2022-10-26T14:46:16;2.65;;;1.30;;
45887;SDS011;31595;51.418;7.572;2022-10-26T14:48:50;1.98;;;1.10;;
45887;SDS011;31595;51.418;7.572;2022-10-26T14:51:21;3.08;;;1.00;;
45887;SDS011;31595;51.418;7.572;2022-10-26T14:53:52;4.20;;;1.40;;
45887;SDS011;31595;51.418;7.572;2022-10-26T14:56:24;3.05;;;1.30;;
45887;SDS011;31595;51.418;7.572;2022-10-26T14:58:54;3.70;;;1.15;;
45887;SDS011;31595;51.418;7.572;2022-10-26T15:01:27;3.65;;;0.98;;
45887;SDS011;31595;51.418;7.572;2022-10-26T15:04:00;3.35;;;1.15;;
45887;SDS011;31595;51.418;7.572;2022-10-26T15:06:33;4.03;;;1.20;;
45887;SDS011;31595;51.418;7.572;2022-10-26T15:09:04;2.60;;;1.25;;
45887;SDS011;31595;51.418;7.572;2022-10-26T15:11:33;2.60;;;1.33;;
45887;SDS011;31595;51.418;7.572;2022-10-26T15:14:00;2.33;;;0.97;;
45887;SDS011;31595;51.418;7.572;2022-10-26T15:16:29;2.67;;;1.05;;
45887;SDS011;31595;51.418;7.572;2022-10-26T15:19:07;4.43;;;1.30;;
45887;SDS011;31595;51.418;7.572;2022-10-26T15:21:37;3.38;;;1.00;;
45887;SDS011;31595;51.418;7.572;2022-10-26T15:24:17;4.63;;;0.93;;
45887;SDS011;31595;51.418;7.572;2022-10-26T15:26:53;4.30;;;1.38;;
45887;SDS011;31595;51.418;7.572;2022-10-26T15:29:33;2.28;;;1.20;;
45887;SDS011;31595;51.418;7.572;2022-10-26T15:32:05;2.78;;;0.90;;
45887;SDS011;31595;51.418;7.572;2022-10-26T15:34:48;3.22;;;1.20;;
45887;SDS011;31595;51.418;7.572;2022-10-26T15:37:16;2.45;;;1.40;;
45887;SDS011;31595;51.418;7.572;2022-10-26T15:39:43;3.95;;;1.30;;
45887;SDS011;31595;51.418;7.572;2022-10-26T15:42:11;2.92;;;1.20;;
45887;SDS011;31595;51.418;7.572;2022-10-26T15:44:39;5.90;;;1.40;;
45887;SDS011;31595;51.418;7.572;2022-10-26T15:47:08;2.38;;;1.15;;
45887;SDS011;31595;51.418;7.572;2022-10-26T15:49:44;6.60;;;1.95;;
45887;SDS011;31595;51.418;7.572;2022-10-26T15:52:14;4.78;;;2.00;;
45887;SDS011;31595;51.418;7.572;2022-10-26T15:54:42;2.38;;;1.20;;
45887;SDS011;31595;51.418;7.572;2022-10-26T15:57:10;5.18;;;1.45;;
45887;SDS011;31595;51.418;7.572;2022-10-26T15:59:40;4.95;;;1.30;;
45887;SDS011;31595;51.418;7.572;2022-10-26T16:02:11;3.88;;;1.20;;
45887;SDS011;31595;51.418;7.572;2022-10-26T16:04:39;4.47;;;1.67;;
45887;SDS011;31595;51.418;7.572;2022-10-26T16:07:08;4.25;;;1.48;;
45887;SDS011;31595;51.418;7.572;2022-10-26T16:09:40;4.40;;;1.20;;
45887;SDS011;31595;51.418;7.572;2022-10-26T16:12:09;3.03;;;1.80;;
45887;SDS011;31595;51.418;7.572;2022-10-26T16:14:38;2.95;;;1.80;;
45887;SDS011;31595;51.418;7.572;2022-10-26T16:17:05;4.47;;;1.38;;
45887;SDS011;31595;51.418;7.572;2022-10-26T16:19:33;2.72;;;1.23;;
45887;SDS011;31595;51.418;7.572;2022-10-26T16:22:00;4.97;;;1.30;;
45887;SDS011;31595;51.418;7.572;2022-10-26T16:24:29;3.13;;;1.17;;
45887;SDS011;31595;51.418;7.572;2022-10-26T16:26:58;5.15;;;1.40;;
45887;SDS011;31595;51.418;7.572;2022-10-26T16:29:25;5.73;;;1.60;;
45887;SDS011;31595;51.418;7.572;2022-10-26T16:31:52;4.65;;;1.40;;
45887;SDS011;31595;51.418;7.572;2022-10-26T16:34:20;3.45;;;1.60;;
45887;SDS011;31595;51.418;7.572;2022-10-26T16:36:47;3.72;;;1.25;;
45887;SDS011;31595;51.418;7.572;2022-10-26T16:39:14;6.43;;;1.60;;
45887;SDS011;31595;51.418;7.572;2022-10-26T16:41:41;3.17;;;1.42;;
45887;SDS011;31595;51.418;7.572;2022-10-26T16:44:11;5.28;;;1.38;;
45887;SDS011;31595;51.418;7.572;2022-10-26T16:46:38;2.20;;;1.20;;
45887;SDS011;31595;51.418;7.572;2022-10-26T16:49:06;1.92;;;1.00;;
45887;SDS011;31595;51.418;7.572;2022-10-26T16:51:34;5.28;;;1.20;;
45887;SDS011;31595;51.418;7.572;2022-10-26T16:54:01;7.18;;;1.52;;
45887;SDS011;31595;51.418;7.572;2022-10-26T16:56:28;3.92;;;1.20;;
45887;SDS011;31595;51.418;7.572;2022-10-26T16:58:56;6.82;;;1.40;;
45887;SDS011;31595;51.418;7.572;2022-10-26T17:01:24;5.03;;;1.42;;
45887;SDS011;31595;51.418;7.572;2022-10-26T17:03:52;4.40;;;1.23;;
45887;SDS011;31595;51.418;7.572;2022-10-26T17:06:19;3.88;;;1.70;;
45887;SDS011;31595;51.418;7.572;2022-10-26T17:08:46;4.97;;;1.40;;
45887;SDS011;31595;51.418;7.572;2022-10-26T17:11:14;3.17;;;1.20;;
45887;SDS011;31595;51.418;7.572;2022-10-26T17:13:42;3.70;;;1.42;;
45887;SDS011;31595;51.418;7.572;2022-10-26T17:16:11;4.63;;;1.50;;
45887;SDS011;31595;51.418;7.572;2022-10-26T17:18:41;3.42;;;1.30;;
45887;SDS011;31595;51.418;7.572;2022-10-26T17:21:09;6.57;;;1.30;;
45887;SDS011;31595;51.418;7.572;2022-10-26T17:23:37;5.38;;;1.42;;
45887;SDS011;31595;51.418;7.572;2022-10-26T17:26:05;5.30;;;2.00;;
45887;SDS011;31595;51.418;7.572;2022-10-26T17:28:34;3.88;;;1.75;;
45887;SDS011;31595;51.418;7.572;2022-10-26T17:31:03;3.40;;;2.17;;
45887;SDS011;31595;51.418;7.572;2022-10-26T17:33:31;4.38;;;2.25;;
45887;SDS011;31595;51.418;7.572;2022-10-26T17:36:01;7.40;;;2.10;;
45887;SDS011;31595;51.418;7.572;2022-10-26T17:38:30;4.68;;;2.10;;
45887;SDS011;31595;51.418;7.572;2022-10-26T17:41:01;3.25;;;2.20;;
45887;SDS011;31595;51.418;7.572;2022-10-26T17:43:31;4.70;;;2.15;;
45887;SDS011;31595;51.418;7.572;2022-10-26T17:45:58;4.15;;;2.50;;
45887;SDS011;31595;51.418;7.572;2022-10-26T17:48:26;3.13;;;2.10;;
45887;SDS011;31595;51.418;7.572;2022-10-26T17:50:56;6.65;;;2.10;;
45887;SDS011;31595;51.418;7.572;2022-10-26T17:55:58;4.68;;;2.28;;
45887;SDS011;31595;51.418;7.572;2022-10-26T17:58:26;4.63;;;2.10;;
45887;SDS011;31595;51.418;7.572;2022-10-26T18:00:54;5.25;;;2.05;;
45887;SDS011;31595;51.418;7.572;2022-10-26T18:03:22;6.20;;;2.10;;
45887;SDS011;31595;51.418;7.572;2022-10-26T18:05:49;5.07;;;1.90;;
45887;SDS011;31595;51.418;7.572;2022-10-26T18:08:17;5.78;;;2.03;;
45887;SDS011;31595;51.418;7.572;2022-10-26T18:10:46;3.05;;;1.80;;
45887;SDS011;31595;51.418;7.572;2022-10-26T18:15:41;6.88;;;2.28;;
45887;SDS011;31595;51.418;7.572;2022-10-26T18:18:08;6.35;;;2.40;;
45887;SDS011;31595;51.418;7.572;2022-10-26T18:20:36;5.20;;;1.88;;
45887;SDS011;31595;51.418;7.572;2022-10-26T18:23:04;6.22;;;2.40;;